Time;durP1;ratioP1;P1;durP2;ratioP2;P2;SDS_P1;SDS_P2;PMS_P1;PMS_P2;Temp;Humidity;BMP_temperature;BMP_pressure;BME280_temperature;BME280_humidity;BME280_pressure;Samples;Min_cycle;Max_cycle;Signal;HPM_P1;HPM_P2
2023/01/12 00:02:03;;;;;;;8.07;3.17;;;;;;;;;;5078874;28;20490;-83
2023/01/12 00:04:30;;;;;;;5.57;3.13;;;;;;;;;;5076630;28;20468;-82
2023/01/12 00:06:57;;;;;;;6.63;2.80;;;;;;;;;;5075277;28;20463;-82
2023/01/12 00:09:24;;;;;;;15.13;3.57;;;;;;;;;;5080082;28;21046;-82
2023/01/12 00:11:50;;;;;;;7.33;3.00;;;;;;;;;;5079862;28;20454;-82
2023/01/12 00:14:18;;;;;;;9.53;3.60;;;;;;;;;;5077465;28;20473;-83
2023/01/12 00:16:44;;;;;;;11.73;3.13;;;;;;;;;;5073587;28;20447;-82
2023/01/12 00:19:11;;;;;;;8.17;2.90;;;;;;;;;;5077856;28;20477;-82
2023/01/12 00:21:51;;;;;;;7.77;3.50;;;;;;;;;;5075076;28;20526;-82
2023/01/12 00:24:18;;;;;;;7.03;3.17;;;;;;;;;;5077945;28;20471;-82
2023/01/12 00:26:45;;;;;;;16.33;3.53;;;;;;;;;;5077668;28;20443;-82
2023/01/12 00:29:11;;;;;;;8.80;2.77;;;;;;;;;;5072906;28;20481;-82
2023/01/12 00:31:39;;;;;;;14.23;2.90;;;;;;;;;;5074603;28;20980;-82
2023/01/12 00:34:05;;;;;;;7.93;2.40;;;;;;;;;;5078969;28;20474;-83
2023/01/12 00:36:32;;;;;;;14.40;3.90;;;;;;;;;;5079172;28;20451;-82
2023/01/12 00:38:58;;;;;;;8.27;2.80;;;;;;;;;;5076518;28;20478;-82
2023/01/12 00:46:50;;;;;;;8.50;5.00;;;;;;;;;;5076128;28;20446;-82
2023/01/12 00:49:16;;;;;;;14.30;2.97;;;;;;;;;;5076881;28;20474;-82
2023/01/12 00:51:43;;;;;;;11.60;2.97;;;;;;;;;;5076312;28;20474;-82
2023/01/12 00:54:09;;;;;;;6.23;2.67;;;;;;;;;;5073865;28;20483;-82
2023/01/12 00:56:36;;;;;;;12.70;3.67;;;;;;;;;;5071508;28;20456;-82
2023/01/12 00:59:03;;;;;;;9.00;3.30;;;;;;;;;;5077852;28;20479;-81
2023/01/12 01:01:29;;;;;;;9.30;3.00;;;;;;;;;;5074815;28;20474;-82
2023/01/12 01:03:57;;;;;;;4.33;2.50;;;;;;;;;;5074733;28;20485;-81
2023/01/12 01:06:23;;;;;;;7.00;2.50;;;;;;;;;;5071466;28;20462;-82
2023/01/12 01:08:50;;;;;;;10.93;3.70;;;;;;;;;;5077282;28;20488;-82
2023/01/12 01:11:16;;;;;;;11.57;3.40;;;;;;;;;;5073137;28;20460;-82
2023/01/12 01:13:43;;;;;;;12.50;3.43;;;;;;;;;;5081636;28;20486;-82
2023/01/12 01:16:10;;;;;;;11.13;3.50;;;;;;;;;;5078538;28;20944;-82
2023/01/12 01:18:36;;;;;;;15.27;3.70;;;;;;;;;;5076062;28;20487;-83
2023/01/12 01:21:04;;;;;;;7.23;3.13;;;;;;;;;;5075830;28;20451;-83
2023/01/12 01:23:33;;;;;;;8.47;3.00;;;;;;;;;;5077211;28;20471;-82
2023/01/12 01:26:02;;;;;;;10.23;4.10;;;;;;;;;;5077166;28;20478;-82
2023/01/12 01:28:28;;;;;;;11.47;3.90;;;;;;;;;;5079675;28;20474;-80
2023/01/12 01:31:02;;;;;;;9.50;3.97;;;;;;;;;;5075829;28;20475;-82
2023/01/12 01:33:28;;;;;;;19.30;3.97;;;;;;;;;;5079905;28;20470;-82
2023/01/12 01:35:55;;;;;;;10.23;3.90;;;;;;;;;;5073760;28;20525;-81
2023/01/12 01:38:23;;;;;;;11.13;3.80;;;;;;;;;;5072020;28;20486;-83
2023/01/12 01:40:50;;;;;;;9.67;2.80;;;;;;;;;;5075663;28;20455;-82
2023/01/12 01:43:18;;;;;;;10.57;3.10;;;;;;;;;;5076407;28;20467;-82
2023/01/12 01:45:46;;;;;;;10.83;2.77;;;;;;;;;;5072900;28;20451;-82
2023/01/12 01:48:14;;;;;;;7.60;2.90;;;;;;;;;;5074984;28;20481;-82
2023/01/12 01:50:41;;;;;;;9.50;4.77;;;;;;;;;;5074664;28;20480;-82
2023/01/12 01:53:10;;;;;;;12.17;3.20;;;;;;;;;;5079809;28;20474;-82
2023/01/12 01:55:40;;;;;;;8.43;2.80;;;;;;;;;;5081644;28;20447;-82
2023/01/12 01:58:08;;;;;;;5.63;2.33;;;;;;;;;;5072023;28;20463;-82
2023/01/12 02:00:36;;;;;;;9.47;2.40;;;;;;;;;;5076550;28;20447;-81
2023/01/12 02:03:04;;;;;;;7.47;2.83;;;;;;;;;;5077449;28;20974;-83
2023/01/12 02:05:31;;;;;;;4.33;2.00;;;;;;;;;;5076089;28;20460;-82
2023/01/12 02:08:01;;;;;;;9.00;2.37;;;;;;;;;;5073487;28;20480;-81
2023/01/12 02:10:27;;;;;;;7.70;2.67;;;;;;;;;;5074293;28;20458;-82
2023/01/12 02:18:30;;;;;;;9.53;2.73;;;;;;;;;;5076123;28;20961;-82
2023/01/12 02:21:19;;;;;;;6.00;2.43;;;;;;;;;;5076056;28;20481;-82
2023/01/12 02:24:07;;;;;;;4.70;1.80;;;;;;;;;;5076950;28;20482;-82
2023/01/12 02:26:51;;;;;;;4.50;2.40;;;;;;;;;;5079238;28;20830;-82
2023/01/12 02:29:32;;;;;;;6.13;2.70;;;;;;;;;;5074360;28;20475;-82
2023/01/12 02:32:04;;;;;;;11.70;3.10;;;;;;;;;;5073536;28;20784;-81
2023/01/12 02:34:32;;;;;;;6.93;3.20;;;;;;;;;;5072662;28;20476;-82
2023/01/12 02:37:03;;;;;;;10.80;2.77;;;;;;;;;;5071904;28;20443;-82
2023/01/12 02:39:33;;;;;;;6.97;3.23;;;;;;;;;;5074359;28;20464;-82
2023/01/12 02:44:50;;;;;;;8.40;3.63;;;;;;;;;;5077453;28;20479;-81
2023/01/12 02:47:22;;;;;;;6.27;3.63;;;;;;;;;;5075999;28;20463;-82
2023/01/12 02:49:51;;;;;;;9.40;3.37;;;;;;;;;;5079297;28;20475;-82
2023/01/12 02:52:19;;;;;;;4.93;3.93;;;;;;;;;;5071998;28;20498;-82
2023/01/12 02:54:47;;;;;;;7.07;4.23;;;;;;;;;;5076687;28;20483;-81
2023/01/12 02:57:14;;;;;;;12.33;4.00;;;;;;;;;;5078113;28;20455;-82
2023/01/12 02:59:42;;;;;;;13.63;3.50;;;;;;;;;;5081410;28;20471;-82
2023/01/12 03:02:10;;;;;;;12.77;4.70;;;;;;;;;;5075840;28;20447;-82
2023/01/12 03:04:38;;;;;;;9.57;4.93;;;;;;;;;;5071072;28;20849;-82
2023/01/12 03:07:23;;;;;;;15.97;4.27;;;;;;;;;;5072010;28;20838;-82
2023/01/12 03:09:51;;;;;;;11.30;4.50;;;;;;;;;;5063010;28;20479;-83
2023/01/12 03:12:20;;;;;;;13.27;4.97;;;;;;;;;;5074445;28;20452;-83
2023/01/12 03:14:48;;;;;;;14.80;5.07;;;;;;;;;;5071957;28;20482;-82
2023/01/12 03:17:17;;;;;;;10.37;4.00;;;;;;;;;;5071763;28;20458;-82
2023/01/12 03:19:45;;;;;;;11.97;4.33;;;;;;;;;;5071615;28;20476;-82
2023/01/12 03:22:12;;;;;;;7.87;4.20;;;;;;;;;;5072275;28;20448;-81
2023/01/12 03:24:41;;;;;;;10.47;4.50;;;;;;;;;;5067473;28;20468;-81
2023/01/12 03:27:10;;;;;;;7.43;3.87;;;;;;;;;;5079520;28;20450;-82
2023/01/12 03:29:38;;;;;;;11.17;4.00;;;;;;;;;;5071973;28;20538;-82
2023/01/12 03:32:05;;;;;;;12.40;3.90;;;;;;;;;;5067802;28;20456;-82
2023/01/12 03:34:32;;;;;;;8.53;4.40;;;;;;;;;;5076106;28;20472;-82
2023/01/12 03:37:03;;;;;;;7.37;4.50;;;;;;;;;;5068064;28;20447;-82
2023/01/12 03:39:32;;;;;;;16.17;4.67;;;;;;;;;;5069831;28;20483;-82
2023/01/12 03:42:03;;;;;;;9.87;6.43;;;;;;;;;;5076619;28;20941;-82
2023/01/12 03:44:32;;;;;;;11.80;4.13;;;;;;;;;;5075454;28;20483;-82
2023/01/12 03:47:01;;;;;;;8.23;4.00;;;;;;;;;;5073306;28;20449;-82
2023/01/12 03:49:31;;;;;;;21.33;5.90;;;;;;;;;;5071957;28;20887;-82
2023/01/12 03:51:59;;;;;;;8.73;4.47;;;;;;;;;;5076254;28;20478;-83
2023/01/12 03:54:28;;;;;;;5.10;3.10;;;;;;;;;;5069048;28;20482;-82
2023/01/12 03:56:54;;;;;;;15.27;4.53;;;;;;;;;;5074341;28;20472;-82
2023/01/12 03:59:21;;;;;;;5.47;3.97;;;;;;;;;;5074732;28;21034;-82
2023/01/12 04:01:47;;;;;;;11.43;4.30;;;;;;;;;;5073617;28;20485;-82
2023/01/12 04:04:14;;;;;;;8.37;3.97;;;;;;;;;;5071263;28;20479;-82
2023/01/12 04:06:41;;;;;;;15.13;5.27;;;;;;;;;;5073238;28;20463;-82
2023/01/12 04:09:08;;;;;;;5.63;4.20;;;;;;;;;;5070769;28;20566;-83
2023/01/12 04:14:19;;;;;;;9.50;3.57;;;;;;;;;;5068373;28;20540;-82
2023/01/12 04:16:45;;;;;;;6.33;3.70;;;;;;;;;;5076446;28;20834;-82
2023/01/12 04:19:12;;;;;;;13.83;3.87;;;;;;;;;;5069849;28;20528;-82
2023/01/12 04:24:22;;;;;;;9.37;4.60;;;;;;;;;;5074587;28;20487;-82
2023/01/12 04:26:49;;;;;;;10.00;4.73;;;;;;;;;;5079630;28;20467;-83
2023/01/12 04:29:16;;;;;;;7.80;4.50;;;;;;;;;;5069757;28;20482;-82
2023/01/12 04:31:42;;;;;;;9.03;5.53;;;;;;;;;;5075483;28;20459;-82
2023/01/12 04:34:08;;;;;;;14.70;4.97;;;;;;;;;;5076230;28;20459;-82
2023/01/12 04:36:35;;;;;;;11.70;4.77;;;;;;;;;;5079804;28;20459;-82
2023/01/12 04:39:01;;;;;;;11.73;4.93;;;;;;;;;;5082911;28;20481;-82
2023/01/12 04:41:27;;;;;;;10.20;4.20;;;;;;;;;;5074234;28;20523;-82
2023/01/12 04:43:55;;;;;;;7.67;4.23;;;;;;;;;;5080006;28;20476;-83
2023/01/12 04:46:21;;;;;;;9.67;4.23;;;;;;;;;;5079527;28;20454;-82
2023/01/12 04:48:48;;;;;;;10.20;5.00;;;;;;;;;;5071452;28;20471;-82
2023/01/12 04:51:14;;;;;;;8.37;4.73;;;;;;;;;;5073688;28;20479;-82
2023/01/12 04:53:40;;;;;;;12.27;4.93;;;;;;;;;;5074656;28;20455;-82
2023/01/12 04:56:07;;;;;;;9.70;4.60;;;;;;;;;;5071133;28;20455;-82
2023/01/12 04:58:34;;;;;;;5.40;3.93;;;;;;;;;;5077503;28;20479;-82
2023/01/12 05:01:08;;;;;;;9.83;3.87;;;;;;;;;;5079841;28;20463;-82
2023/01/12 05:03:35;;;;;;;11.07;4.30;;;;;;;;;;5074876;28;20474;-82
2023/01/12 05:06:01;;;;;;;9.13;3.80;;;;;;;;;;5073630;28;20467;-83
2023/01/12 05:11:11;;;;;;;8.93;4.10;;;;;;;;;;5077123;28;20434;-83
2023/01/12 05:13:38;;;;;;;7.80;3.90;;;;;;;;;;5074806;28;20886;-83
2023/01/12 05:16:09;;;;;;;5.23;3.27;;;;;;;;;;5076214;28;20463;-82
2023/01/12 05:18:35;;;;;;;5.67;3.20;;;;;;;;;;5079267;28;21030;-82
2023/01/12 05:21:02;;;;;;;6.50;3.40;;;;;;;;;;5078171;28;20468;-82
2023/01/12 05:23:28;;;;;;;5.40;2.83;;;;;;;;;;5064268;28;20488;-81
2023/01/12 05:25:57;;;;;;;5.20;2.80;;;;;;;;;;5058003;28;20456;-82
2023/01/12 05:28:24;;;;;;;4.13;3.73;;;;;;;;;;5058545;28;20474;-82
2023/01/12 05:30:50;;;;;;;8.33;3.07;;;;;;;;;;5078418;28;20460;-82
2023/01/12 05:33:18;;;;;;;8.10;4.00;;;;;;;;;;5078141;28;20463;-83
2023/01/12 05:35:44;;;;;;;5.20;3.83;;;;;;;;;;5076930;28;20898;-82
2023/01/12 05:38:11;;;;;;;5.17;3.40;;;;;;;;;;5076311;28;20993;-82
2023/01/12 05:40:37;;;;;;;10.77;4.90;;;;;;;;;;5071869;28;20463;-82
2023/01/12 05:45:47;;;;;;;4.67;2.60;;;;;;;;;;5077538;28;20807;-82
2023/01/12 05:48:13;;;;;;;6.20;3.77;;;;;;;;;;5078199;28;20996;-82
2023/01/12 05:50:41;;;;;;;4.43;3.53;;;;;;;;;;5075253;28;20466;-82
2023/01/12 05:53:08;;;;;;;4.63;2.93;;;;;;;;;;5077428;28;20558;-82
2023/01/12 05:55:34;;;;;;;4.33;2.60;;;;;;;;;;5076200;28;20450;-82
2023/01/12 05:58:00;;;;;;;6.53;4.10;;;;;;;;;;5072691;28;20468;-82
2023/01/12 06:00:27;;;;;;;4.57;3.07;;;;;;;;;;5077315;28;20463;-82
2023/01/12 06:02:53;;;;;;;3.83;2.80;;;;;;;;;;5075597;28;20471;-82
2023/01/12 06:05:19;;;;;;;4.20;2.93;;;;;;;;;;5075999;28;20483;-82
2023/01/12 06:07:48;;;;;;;3.27;3.07;;;;;;;;;;5077804;28;20479;-82
2023/01/12 06:10:14;;;;;;;6.23;2.60;;;;;;;;;;5076235;28;20456;-82
2023/01/12 06:15:24;;;;;;;5.13;2.90;;;;;;;;;;5076628;28;20466;-83
2023/01/12 06:17:51;;;;;;;8.10;2.90;;;;;;;;;;5077041;28;20474;-82
2023/01/12 06:20:17;;;;;;;7.97;2.67;;;;;;;;;;5075166;28;20974;-82
2023/01/12 06:22:43;;;;;;;4.53;2.47;;;;;;;;;;5076353;28;20440;-82
2023/01/12 06:25:11;;;;;;;4.47;1.90;;;;;;;;;;5072167;28;21019;-82
2023/01/12 06:27:38;;;;;;;2.97;2.20;;;;;;;;;;5078713;28;20468;-82
2023/01/12 06:30:05;;;;;;;4.90;2.70;;;;;;;;;;5068110;28;20459;-81
2023/01/12 06:32:31;;;;;;;3.40;2.47;;;;;;;;;;5071848;28;20458;-82
2023/01/12 06:34:58;;;;;;;4.50;2.30;;;;;;;;;;5078046;28;20991;-82
2023/01/12 06:37:24;;;;;;;4.90;2.43;;;;;;;;;;5074293;28;20529;-82
2023/01/12 06:39:50;;;;;;;4.77;2.50;;;;;;;;;;5075664;28;20533;-81
2023/01/12 06:42:31;;;;;;;7.20;3.60;;;;;;;;;;5077924;28;20818;-82
2023/01/12 06:44:59;;;;;;;2.90;1.97;;;;;;;;;;5073714;28;20478;-82
2023/01/12 06:47:26;;;;;;;3.53;1.90;;;;;;;;;;5077335;28;20460;-83
2023/01/12 06:49:53;;;;;;;3.93;1.70;;;;;;;;;;5073330;28;20475;-82
2023/01/12 06:52:19;;;;;;;3.43;2.00;;;;;;;;;;5079379;28;20446;-83
2023/01/12 06:54:46;;;;;;;6.87;1.70;;;;;;;;;;5077001;28;20463;-82
2023/01/12 06:57:13;;;;;;;4.10;1.60;;;;;;;;;;5072683;28;20454;-83
2023/01/12 06:59:41;;;;;;;3.10;1.63;;;;;;;;;;5076639;28;20476;-82
2023/01/12 07:02:10;;;;;;;5.27;2.30;;;;;;;;;;5076853;28;20474;-82
2023/01/12 07:04:36;;;;;;;5.93;1.80;;;;;;;;;;5068367;28;20481;-82
2023/01/12 07:07:03;;;;;;;1.60;1.47;;;;;;;;;;5078819;28;20435;-82
2023/01/12 07:09:29;;;;;;;4.30;1.73;;;;;;;;;;5074713;28;20989;-82
2023/01/12 07:11:55;;;;;;;3.23;1.60;;;;;;;;;;5076689;28;20444;-82
2023/01/12 07:14:22;;;;;;;3.40;1.33;;;;;;;;;;5077187;28;20472;-83
2023/01/12 07:16:49;;;;;;;2.40;1.43;;;;;;;;;;5076667;28;20466;-82
2023/01/12 07:19:16;;;;;;;5.57;1.40;;;;;;;;;;5075767;28;20471;-82
2023/01/12 07:21:43;;;;;;;1.83;1.10;;;;;;;;;;5074262;28;20447;-82
2023/01/12 07:24:09;;;;;;;2.03;1.07;;;;;;;;;;5077996;28;20475;-81
2023/01/12 07:26:35;;;;;;;4.80;1.70;;;;;;;;;;5077726;28;20459;-82
2023/01/12 07:29:02;;;;;;;4.10;2.03;;;;;;;;;;5073175;28;20475;-83
2023/01/12 07:31:28;;;;;;;1.77;1.10;;;;;;;;;;5076425;28;20463;-82
2023/01/12 07:33:56;;;;;;;5.90;1.20;;;;;;;;;;5077541;28;20474;-82
2023/01/12 07:36:22;;;;;;;5.53;1.60;;;;;;;;;;5054678;28;20479;-82
2023/01/12 07:38:48;;;;;;;1.83;1.60;;;;;;;;;;5069651;28;20474;-82
2023/01/12 07:43:55;;;;;;;5.00;1.57;;;;;;;;;;5074870;28;20482;-81
2023/01/12 07:46:21;;;;;;;3.40;2.10;;;;;;;;;;5076321;28;20485;-82
2023/01/12 07:48:48;;;;;;;3.07;2.37;;;;;;;;;;5076456;28;20468;-82
2023/01/12 07:51:15;;;;;;;5.50;2.40;;;;;;;;;;5073676;28;20996;-81
2023/01/12 07:53:42;;;;;;;3.93;1.70;;;;;;;;;;5077757;28;20510;-81
2023/01/12 07:56:09;;;;;;;2.33;2.10;;;;;;;;;;5073807;28;20479;-83
2023/01/12 07:58:36;;;;;;;5.03;3.40;;;;;;;;;;5072084;28;20488;-82
2023/01/12 08:01:03;;;;;;;3.97;1.90;;;;;;;;;;5073363;28;20461;-82
2023/01/12 08:03:29;;;;;;;7.90;2.30;;;;;;;;;;5077986;28;20459;-81
2023/01/12 08:05:56;;;;;;;4.63;2.23;;;;;;;;;;5070617;28;20483;-83
2023/01/12 08:08:24;;;;;;;3.07;2.10;;;;;;;;;;5076847;28;20475;-81
2023/01/12 08:10:50;;;;;;;4.83;1.90;;;;;;;;;;5080976;28;20443;-81
2023/01/12 08:13:17;;;;;;;6.80;2.23;;;;;;;;;;5077750;28;20840;-81
2023/01/12 08:15:46;;;;;;;2.67;2.10;;;;;;;;;;5076016;28;20430;-82
2023/01/12 08:18:16;;;;;;;2.10;2.00;;;;;;;;;;5080709;28;20479;-81
2023/01/12 08:20:42;;;;;;;1.73;1.63;;;;;;;;;;5079297;28;20442;-83
2023/01/12 08:23:10;;;;;;;7.70;2.13;;;;;;;;;;5082728;28;20457;-81
2023/01/12 08:25:43;;;;;;;2.70;1.67;;;;;;;;;;5079384;28;20484;-82
2023/01/12 08:28:12;;;;;;;8.10;2.00;;;;;;;;;;5077935;28;20502;-81
2023/01/12 08:30:38;;;;;;;2.47;2.13;;;;;;;;;;5078909;28;20988;-81
2023/01/12 08:33:05;;;;;;;2.20;1.40;;;;;;;;;;5076189;28;20863;-82
2023/01/12 08:35:32;;;;;;;3.47;1.80;;;;;;;;;;5076436;28;20811;-82
2023/01/12 08:37:59;;;;;;;2.90;1.73;;;;;;;;;;5079585;28;20466;-82
2023/01/12 08:41:31;;;;;;;5.53;1.70;;;;;;;;;;5074802;28;20458;-82
2023/01/12 08:44:00;;;;;;;1.50;1.40;;;;;;;;;;5073709;28;20467;-82
2023/01/12 08:46:06;;;;;;;6.03;1.63;;;;;;;;;;5077785;28;20454;-82
2023/01/12 08:48:32;;;;;;;3.27;1.50;;;;;;;;;;5073321;28;20484;-83
2023/01/12 08:50:59;;;;;;;2.03;1.83;;;;;;;;;;5080678;28;20451;-83
2023/01/12 08:53:25;;;;;;;5.37;1.90;;;;;;;;;;5079414;28;20455;-82
2023/01/12 08:55:52;;;;;;;2.27;1.60;;;;;;;;;;5076871;28;20446;-82
2023/01/12 08:58:19;;;;;;;2.50;1.30;;;;;;;;;;5079743;28;20470;-82
2023/01/12 09:00:46;;;;;;;2.40;1.60;;;;;;;;;;5076562;28;20448;-82
2023/01/12 09:03:12;;;;;;;2.70;1.50;;;;;;;;;;5077486;28;20455;-83
2023/01/12 09:05:38;;;;;;;2.17;1.43;;;;;;;;;;5075670;28;20483;-82
2023/01/12 09:08:05;;;;;;;1.50;1.40;;;;;;;;;;5060809;28;20481;-82
2023/01/12 09:10:31;;;;;;;1.03;1.03;;;;;;;;;;5060973;28;20440;-82
2023/01/12 09:12:57;;;;;;;1.50;1.40;;;;;;;;;;5082026;28;20470;-82
2023/01/12 09:15:25;;;;;;;2.50;1.10;;;;;;;;;;5079381;28;20482;-82
2023/01/12 09:17:52;;;;;;;1.30;1.20;;;;;;;;;;5083554;28;20483;-82
2023/01/12 09:20:18;;;;;;;1.30;1.20;;;;;;;;;;5076780;28;20436;-82
2023/01/12 09:22:44;;;;;;;3.17;1.70;;;;;;;;;;5073280;28;21174;-81
2023/01/12 09:25:11;;;;;;;3.60;1.53;;;;;;;;;;5071916;28;20494;-82
2023/01/12 09:27:37;;;;;;;1.70;1.20;;;;;;;;;;5076369;28;20539;-82
2023/01/12 09:30:04;;;;;;;1.73;1.63;;;;;;;;;;5076766;28;20925;-81
2023/01/12 09:32:31;;;;;;;1.80;1.70;;;;;;;;;;5073998;28;20483;-83
2023/01/12 09:34:58;;;;;;;2.10;1.33;;;;;;;;;;5071440;28;20439;-82
2023/01/12 09:37:24;;;;;;;7.83;3.67;;;;;;;;;;5075907;28;20494;-83
2023/01/12 09:39:51;;;;;;;2.20;1.83;;;;;;;;;;5079497;28;20543;-82
2023/01/12 09:47:50;;;;;;;2.30;1.20;;;;;;;;;;5077195;28;20514;-82
2023/01/12 09:50:19;;;;;;;1.00;1.00;;;;;;;;;;5065444;28;20450;-81
2023/01/12 09:52:47;;;;;;;2.20;1.17;;;;;;;;;;5068959;28;21031;-83
2023/01/12 09:55:16;;;;;;;1.17;1.10;;;;;;;;;;5079922;28;20518;-83
2023/01/12 09:57:51;;;;;;;1.13;0.90;;;;;;;;;;5078698;28;20467;-83
2023/01/12 10:00:18;;;;;;;0.83;0.83;;;;;;;;;;5073472;28;20789;-82
2023/01/12 10:02:48;;;;;;;1.03;0.90;;;;;;;;;;5076867;28;20479;-82
2023/01/12 10:05:20;;;;;;;1.23;0.90;;;;;;;;;;5071972;28;20484;-81
2023/01/12 10:07:46;;;;;;;3.80;1.30;;;;;;;;;;5072441;28;20480;-82
2023/01/12 10:10:14;;;;;;;3.00;1.70;;;;;;;;;;5076382;28;20928;-82
2023/01/12 10:12:45;;;;;;;0.80;0.80;;;;;;;;;;5072770;28;20468;-82
2023/01/12 10:15:23;;;;;;;4.60;0.70;;;;;;;;;;5074749;28;20497;-82
2023/01/12 10:17:52;;;;;;;0.80;0.80;;;;;;;;;;5071744;28;20482;-82
2023/01/12 10:20:21;;;;;;;0.80;0.80;;;;;;;;;;5075348;28;20446;-81
2023/01/12 10:22:48;;;;;;;0.93;0.80;;;;;;;;;;5078310;28;20467;-82
2023/01/12 10:25:18;;;;;;;6.33;2.10;;;;;;;;;;5082147;28;20847;-81
2023/01/12 10:27:45;;;;;;;1.20;1.10;;;;;;;;;;5076308;28;20479;-81
2023/01/12 10:30:13;;;;;;;0.87;0.80;;;;;;;;;;5075684;28;20457;-82
2023/01/12 10:32:39;;;;;;;1.30;0.80;;;;;;;;;;5075379;28;20524;-81
2023/01/12 10:35:12;;;;;;;2.50;0.77;;;;;;;;;;5069790;28;20456;-82
2023/01/12 10:37:44;;;;;;;1.60;0.70;;;;;;;;;;5076695;28;20481;-82
2023/01/12 10:40:18;;;;;;;1.27;1.17;;;;;;;;;;5074557;28;20443;-82
2023/01/12 10:45:43;;;;;;;1.23;0.70;;;;;;;;;;5048662;28;20501;-82
2023/01/12 10:48:19;;;;;;;0.80;0.80;;;;;;;;;;5072604;28;20462;-82
2023/01/12 10:50:55;;;;;;;1.57;0.83;;;;;;;;;;5078429;28;20554;-82
2023/01/12 10:53:27;;;;;;;1.60;1.17;;;;;;;;;;5079462;28;20801;-82
2023/01/12 10:55:53;;;;;;;0.77;0.77;;;;;;;;;;5075642;28;20451;-82
2023/01/12 10:58:21;;;;;;;0.90;0.90;;;;;;;;;;5077706;28;20887;-82
2023/01/12 11:00:48;;;;;;;2.37;2.00;;;;;;;;;;5070236;28;20456;-82
2023/01/12 11:03:31;;;;;;;2.57;1.33;;;;;;;;;;5073024;28;20450;-82
2023/01/12 11:06:13;;;;;;;1.90;1.17;;;;;;;;;;5073472;28;20536;-82
2023/01/12 11:08:41;;;;;;;4.60;1.37;;;;;;;;;;5070399;28;20482;-81
2023/01/12 11:11:14;;;;;;;2.77;1.27;;;;;;;;;;5072625;28;20463;-82
2023/01/12 11:13:41;;;;;;;2.23;1.47;;;;;;;;;;5076533;28;20447;-82
2023/01/12 11:16:11;;;;;;;1.67;1.57;;;;;;;;;;5073197;28;20465;-82
2023/01/12 11:18:39;;;;;;;3.97;1.33;;;;;;;;;;5073764;28;20981;-83
2023/01/12 11:21:07;;;;;;;4.33;1.83;;;;;;;;;;5077451;28;20489;-82
2023/01/12 11:23:36;;;;;;;4.90;1.97;;;;;;;;;;5073041;28;20944;-82
2023/01/12 11:26:08;;;;;;;2.70;2.10;;;;;;;;;;5071828;28;20470;-82
2023/01/12 11:28:36;;;;;;;4.07;1.53;;;;;;;;;;5073075;28;20463;-82
2023/01/12 11:31:07;;;;;;;3.50;1.50;;;;;;;;;;5072496;28;20455;-82
2023/01/12 11:33:36;;;;;;;2.33;1.40;;;;;;;;;;5070161;28;20443;-82
2023/01/12 11:36:05;;;;;;;1.60;1.50;;;;;;;;;;5073784;28;20463;-84
2023/01/12 11:38:33;;;;;;;2.10;1.70;;;;;;;;;;5075552;28;20478;-81
2023/01/12 11:41:00;;;;;;;5.50;2.10;;;;;;;;;;5067510;28;21005;-83
2023/01/12 11:43:49;;;;;;;3.20;1.77;;;;;;;;;;5074761;28;20455;-81
2023/01/12 11:46:18;;;;;;;2.10;1.90;;;;;;;;;;5077044;28;20462;-82
2023/01/12 11:48:48;;;;;;;3.60;2.93;;;;;;;;;;5079518;28;20465;-82
2023/01/12 11:51:14;;;;;;;2.90;2.17;;;;;;;;;;5079001;28;20841;-81
2023/01/12 11:53:40;;;;;;;8.27;2.20;;;;;;;;;;5076671;28;20457;-81
2023/01/12 11:56:18;;;;;;;4.10;2.60;;;;;;;;;;5077474;28;20463;-81
2023/01/12 11:58:51;;;;;;;5.70;2.40;;;;;;;;;;5082512;28;20474;-82
2023/01/12 12:01:21;;;;;;;5.87;2.83;;;;;;;;;;5079551;28;20467;-81
2023/01/12 12:04:00;;;;;;;8.83;3.03;;;;;;;;;;5072479;28;20454;-81
2023/01/12 12:06:40;;;;;;;6.03;3.00;;;;;;;;;;5074938;28;20496;-82
2023/01/12 12:09:14;;;;;;;8.03;3.00;;;;;;;;;;5068482;28;20470;-82
2023/01/12 12:11:46;;;;;;;5.40;2.20;;;;;;;;;;5067700;28;20471;-82
2023/01/12 12:14:21;;;;;;;4.83;2.20;;;;;;;;;;5077341;28;20443;-82
2023/01/12 12:16:52;;;;;;;5.30;2.40;;;;;;;;;;5077031;28;20466;-82
2023/01/12 12:19:23;;;;;;;5.80;2.27;;;;;;;;;;5078046;28;20487;-82
2023/01/12 12:21:51;;;;;;;5.10;2.10;;;;;;;;;;5072061;28;20468;-83
2023/01/12 12:24:27;;;;;;;5.33;2.43;;;;;;;;;;5077555;28;20438;-82
2023/01/12 12:26:58;;;;;;;7.87;2.60;;;;;;;;;;5075880;28;20841;-82
2023/01/12 12:29:32;;;;;;;4.10;2.63;;;;;;;;;;5075936;28;20478;-82
2023/01/12 12:32:07;;;;;;;5.97;2.30;;;;;;;;;;5076209;28;20483;-82
2023/01/12 12:34:54;;;;;;;9.53;3.43;;;;;;;;;;5074328;28;20520;-82
2023/01/12 12:37:22;;;;;;;6.27;3.43;;;;;;;;;;5076521;28;20520;-83
2023/01/12 12:39:49;;;;;;;5.83;2.83;;;;;;;;;;5072028;28;20974;-82
2023/01/12 12:45:19;;;;;;;7.47;2.70;;;;;;;;;;5075895;28;20420;-82
2023/01/12 12:47:52;;;;;;;5.37;2.87;;;;;;;;;;5068106;28;20491;-83
2023/01/12 12:50:21;;;;;;;6.57;3.17;;;;;;;;;;5072607;28;20938;-82
2023/01/12 12:52:50;;;;;;;6.30;2.97;;;;;;;;;;5077032;28;20989;-81
2023/01/12 12:55:16;;;;;;;8.10;3.20;;;;;;;;;;5076337;28;20455;-82
2023/01/12 12:58:06;;;;;;;5.27;3.53;;;;;;;;;;5075738;28;20483;-82
2023/01/12 13:00:41;;;;;;;5.77;3.07;;;;;;;;;;5059861;28;20494;-82
2023/01/12 13:03:08;;;;;;;5.43;3.13;;;;;;;;;;5072143;28;20537;-82
2023/01/12 13:05:44;;;;;;;7.10;2.87;;;;;;;;;;5074442;28;20530;-82
2023/01/12 13:08:18;;;;;;;11.50;3.63;;;;;;;;;;5072439;28;20517;-81
2023/01/12 13:10:48;;;;;;;9.07;3.80;;;;;;;;;;5072971;28;20466;-82
2023/01/12 13:13:28;;;;;;;7.43;2.40;;;;;;;;;;5071167;28;20459;-82
2023/01/12 13:16:12;;;;;;;8.20;3.23;;;;;;;;;;5070893;28;20462;-83
2023/01/12 13:19:02;;;;;;;4.17;2.27;;;;;;;;;;5046511;28;20483;-82
2023/01/12 13:21:30;;;;;;;5.70;2.70;;;;;;;;;;5071160;28;20494;-83
2023/01/12 13:24:22;;;;;;;3.47;1.93;;;;;;;;;;5070773;28;20451;-82
2023/01/12 13:26:51;;;;;;;5.67;1.90;;;;;;;;;;5067895;28;20558;-82
2023/01/12 13:29:36;;;;;;;6.20;2.13;;;;;;;;;;5076307;28;20479;-82
2023/01/12 13:32:21;;;;;;;6.57;1.90;;;;;;;;;;5064315;28;20473;-82
2023/01/12 13:34:48;;;;;;;4.33;1.80;;;;;;;;;;5069545;28;20447;-82
2023/01/12 13:37:22;;;;;;;3.97;2.10;;;;;;;;;;5070144;28;20498;-82
2023/01/12 13:39:52;;;;;;;3.80;1.50;;;;;;;;;;5076029;28;20482;-82
2023/01/12 13:45:09;;;;;;;4.93;2.27;;;;;;;;;;5072611;28;20511;-82
2023/01/12 13:47:36;;;;;;;2.77;2.20;;;;;;;;;;5073535;28;21265;-82
2023/01/12 13:50:04;;;;;;;5.83;2.63;;;;;;;;;;5071597;28;20455;-82
2023/01/12 13:52:32;;;;;;;8.47;3.17;;;;;;;;;;5070305;28;20474;-82
2023/01/12 13:54:59;;;;;;;2.97;2.23;;;;;;;;;;5075706;28;20462;-82
2023/01/12 13:57:26;;;;;;;5.33;2.20;;;;;;;;;;5074193;28;20467;-82
2023/01/12 13:59:56;;;;;;;3.73;1.77;;;;;;;;;;5073688;28;20459;-82
2023/01/12 14:02:23;;;;;;;7.97;3.07;;;;;;;;;;5072184;28;20519;-82
2023/01/12 14:04:57;;;;;;;8.17;2.43;;;;;;;;;;5078713;28;20459;-82
2023/01/12 14:07:36;;;;;;;10.50;2.00;;;;;;;;;;5066915;28;20471;-82
2023/01/12 14:10:10;;;;;;;6.37;2.37;;;;;;;;;;5073615;28;20957;-82
2023/01/12 14:12:52;;;;;;;4.00;2.60;;;;;;;;;;5075528;28;20491;-82
2023/01/12 14:18:08;;;;;;;6.97;2.57;;;;;;;;;;5072824;28;20467;-82
2023/01/12 14:20:40;;;;;;;5.70;3.33;;;;;;;;;;5071572;28;20466;-82
2023/01/12 14:23:25;;;;;;;6.00;2.97;;;;;;;;;;5073419;28;20451;-82
2023/01/12 14:26:07;;;;;;;7.90;3.27;;;;;;;;;;5066724;28;20466;-82
2023/01/12 14:28:33;;;;;;;4.10;2.20;;;;;;;;;;5070651;28;20464;-82
2023/01/12 14:31:00;;;;;;;15.40;3.77;;;;;;;;;;5073155;28;20476;-83
2023/01/12 14:33:28;;;;;;;4.03;2.73;;;;;;;;;;5077985;28;20444;-82
2023/01/12 14:35:57;;;;;;;7.90;2.90;;;;;;;;;;5074745;28;20447;-82
2023/01/12 14:38:26;;;;;;;8.50;3.60;;;;;;;;;;5072259;28;20481;-82
2023/01/12 14:40:56;;;;;;;5.50;3.10;;;;;;;;;;5072428;28;20821;-82
2023/01/12 14:46:27;;;;;;;8.17;3.43;;;;;;;;;;5069772;28;20566;-82
2023/01/12 14:48:55;;;;;;;7.93;3.70;;;;;;;;;;5074093;28;20482;-82
2023/01/12 14:51:23;;;;;;;10.77;3.63;;;;;;;;;;5072060;28;20486;-82
2023/01/12 14:53:55;;;;;;;3.23;2.93;;;;;;;;;;5073279;28;20439;-83
2023/01/12 14:56:22;;;;;;;9.20;3.60;;;;;;;;;;5073576;28;20459;-82
2023/01/12 14:58:51;;;;;;;8.60;3.63;;;;;;;;;;5072018;28;20546;-82
2023/01/12 15:01:30;;;;;;;12.20;3.73;;;;;;;;;;5066774;28;20495;-83
2023/01/12 15:03:56;;;;;;;7.30;3.90;;;;;;;;;;5070388;28;20459;-82
2023/01/12 15:06:22;;;;;;;7.43;3.63;;;;;;;;;;5069321;28;20474;-82
2023/01/12 15:08:52;;;;;;;15.87;3.40;;;;;;;;;;5073581;28;20468;-82
2023/01/12 15:11:28;;;;;;;7.00;3.40;;;;;;;;;;5073411;28;20466;-82
2023/01/12 15:13:57;;;;;;;5.73;3.00;;;;;;;;;;5072785;28;20443;-82
2023/01/12 15:27:20;;;;;;;6.63;4.77;;;;;;;;;;5071946;28;20532;-82
2023/01/12 15:29:48;;;;;;;9.20;4.50;;;;;;;;;;5074358;28;20447;-82
2023/01/12 15:32:17;;;;;;;5.70;4.90;;;;;;;;;;5069234;28;20480;-82
2023/01/12 15:34:44;;;;;;;10.40;6.57;;;;;;;;;;5070539;28;20488;-82
2023/01/12 15:37:12;;;;;;;6.40;5.10;;;;;;;;;;5069894;28;20489;-82
2023/01/12 15:39:39;;;;;;;6.90;6.20;;;;;;;;;;5069759;28;20478;-82
2023/01/12 15:42:20;;;;;;;6.77;6.10;;;;;;;;;;5068721;28;21004;-82
2023/01/12 15:44:48;;;;;;;6.90;5.03;;;;;;;;;;5072317;28;20447;-82
2023/01/12 15:47:15;;;;;;;7.40;4.57;;;;;;;;;;5064272;28;20478;-82
2023/01/12 15:49:43;;;;;;;5.27;4.77;;;;;;;;;;5078212;28;20443;-82
2023/01/12 15:52:11;;;;;;;5.80;4.57;;;;;;;;;;5067863;28;20475;-82
2023/01/12 15:54:38;;;;;;;5.23;4.73;;;;;;;;;;5070733;28;20466;-82